Time;durP1;ratioP1;P1;durP2;ratioP2;P2;SDS_P1;SDS_P2;PMS_P1;PMS_P2;Temp;Humidity;BMP_temperature;BMP_pressure;BME280_temperature;BME280_humidity;BME280_pressure;Samples;Min_cycle;Max_cycle;Signal;HPM_P1;HPM_P2
2024/03/28 00:01:23;;;;;;;;;;;;;;;19.89;36.17;96676.68;68017;1276;1016446;-66
2024/03/28 00:04:27;;;;;;;;;;;;;;;19.86;36.24;96678.97;67941;1276;1016895;-66
2024/03/28 00:07:32;;;;;;;;;;;;;;;20.18;35.84;96669.55;68005;1276;1016341;-65
2024/03/28 00:10:38;;;;;;;;;;;;;;;20.35;35.65;96663.74;68005;1276;1016181;-66
2024/03/28 00:13:43;;;;;;;;;;;;;;;20.43;35.60;96661.13;68023;1276;1016433;-65
2024/03/28 00:16:47;;;;;;;;;;;;;;;20.27;35.98;96660.64;68017;1276;1016444;-66
2024/03/28 00:19:53;;;;;;;;;;;;;;;20.46;35.58;96658.84;67896;1276;1019040;-66
2024/03/28 00:22:58;;;;;;;;;;;;;;;20.30;35.80;96651.00;67983;1276;1017102;-66
2024/03/28 00:26:02;;;;;;;;;;;;;;;20.44;35.75;96640.08;67891;1276;1016150;-65
2024/03/28 00:29:05;;;;;;;;;;;;;;;20.49;35.69;96632.36;67981;1276;1016059;-66
2024/03/28 00:32:10;;;;;;;;;;;;;;;20.61;35.57;96625.16;67990;1276;1016467;-60
2024/03/28 00:35:14;;;;;;;;;;;;;;;20.82;35.38;96623.12;68004;1276;1016216;-66
2024/03/28 00:38:18;;;;;;;;;;;;;;;20.79;35.43;96615.36;67980;1276;1016576;-66
2024/03/28 00:41:23;;;;;;;;;;;;;;;20.91;35.19;96608.45;67993;1276;1018848;-66
2024/03/28 00:44:30;;;;;;;;;;;;;;;20.89;35.35;96602.73;67983;1276;1016002;-62
2024/03/28 00:47:34;;;;;;;;;;;;;;;20.93;35.32;96606.30;67998;1276;1016101;-66
2024/03/28 00:50:37;;;;;;;;;;;;;;;21.02;35.21;96598.99;67921;1276;1017421;-60
2024/03/28 00:53:42;;;;;;;;;;;;;;;20.86;35.55;96596.94;67958;1276;1016675;-66
2024/03/28 00:56:46;;;;;;;;;;;;;;;20.59;35.97;96586.61;67937;1276;1016411;-66
2024/03/28 00:59:51;;;;;;;;;;;;;;;20.48;36.24;96576.87;67961;1276;1016523;-60
2024/03/28 01:02:56;;;;;;;;;;;;;;;20.42;36.48;96571.85;67977;1276;1016414;-63
2024/03/28 01:06:01;;;;;;;;;;;;;;;20.73;35.88;96580.13;68008;1276;1017144;-65
2024/03/28 01:09:06;;;;;;;;;;;;;;;20.81;35.88;96591.00;68009;1276;1016329;-66
2024/03/28 01:12:09;;;;;;;;;;;;;;;20.53;36.50;96582.66;67931;1276;1016372;-66
2024/03/28 01:15:13;;;;;;;;;;;;;;;20.47;36.52;96583.62;67862;1275;1016154;-65
2024/03/28 01:18:17;;;;;;;;;;;;;;;20.47;36.64;96582.08;68009;1276;1017067;-66
2024/03/28 01:21:21;;;;;;;;;;;;;;;20.63;36.37;96583.77;67988;1276;1016337;-61
2024/03/28 01:24:26;;;;;;;;;;;;;;;20.68;36.39;96582.32;67940;1276;1016746;-65
2024/03/28 01:27:30;;;;;;;;;;;;;;;20.78;36.25;96576.91;67990;1276;1016234;-62
2024/03/28 01:30:34;;;;;;;;;;;;;;;20.70;36.42;96574.58;68017;1276;1016375;-66
2024/03/28 01:33:39;;;;;;;;;;;;;;;20.70;36.44;96570.52;68008;1276;1015982;-66
2024/03/28 01:36:44;;;;;;;;;;;;;;;20.79;36.45;96564.05;67955;1276;1016478;-66
2024/03/28 01:39:49;;;;;;;;;;;;;;;20.85;36.35;96564.25;67986;1276;1016380;-66
2024/03/28 01:42:56;;;;;;;;;;;;;;;20.83;36.31;96564.73;67919;1276;1016389;-66
2024/03/28 01:46:01;;;;;;;;;;;;;;;20.97;36.26;96567.38;67946;1276;1016321;-64
2024/03/28 01:49:04;;;;;;;;;;;;;;;21.27;35.78;96565.54;67982;1276;1016384;-65
2024/03/28 01:52:08;;;;;;;;;;;;;;;21.44;35.53;96552.02;67994;1275;1016073;-66
2024/03/28 01:55:12;;;;;;;;;;;;;;;21.44;35.60;96545.58;67995;1276;1016284;-62
2024/03/28 01:58:17;;;;;;;;;;;;;;;21.33;35.82;96549.16;68032;1276;1016538;-66
2024/03/28 02:01:22;;;;;;;;;;;;;;;21.48;35.68;96553.93;68028;1276;1016967;-60
2024/03/28 02:04:26;;;;;;;;;;;;;;;21.54;35.70;96550.00;67946;1276;1016113;-66
2024/03/28 02:07:30;;;;;;;;;;;;;;;21.51;35.78;96554.89;67982;1276;1017134;-65
2024/03/28 02:10:35;;;;;;;;;;;;;;;21.46;36.04;96554.98;67968;1276;1016465;-65
2024/03/28 02:13:39;;;;;;;;;;;;;;;21.55;35.91;96554.05;67870;1276;1016941;-66
2024/03/28 02:16:45;;;;;;;;;;;;;;;21.52;36.00;96544.92;67937;1276;1016261;-66
2024/03/28 02:19:49;;;;;;;;;;;;;;;21.49;36.14;96543.90;67999;1276;1016390;-66
2024/03/28 02:22:52;;;;;;;;;;;;;;;21.68;35.81;96536.58;68007;1276;1016165;-60
2024/03/28 02:25:57;;;;;;;;;;;;;;;21.66;35.89;96538.16;67963;1276;1016529;-65
2024/03/28 02:29:03;;;;;;;;;;;;;;;21.48;36.29;96546.99;67984;1276;1016802;-60
2024/03/28 02:32:07;;;;;;;;;;;;;;;21.56;36.13;96547.89;67963;1276;1015984;-66
2024/03/28 02:35:11;;;;;;;;;;;;;;;21.61;36.03;96544.36;67951;1276;1016370;-66
2024/03/28 02:38:15;;;;;;;;;;;;;;;21.65;36.02;96539.80;67842;1276;1016040;-66
2024/03/28 02:41:20;;;;;;;;;;;;;;;21.76;35.78;96536.98;67991;1276;1016284;-66
2024/03/28 02:44:23;;;;;;;;;;;;;;;21.75;35.76;96525.31;67987;1276;1016225;-62
2024/03/28 02:47:27;;;;;;;;;;;;;;;21.84;35.59;96520.46;67883;1276;1015917;-66
2024/03/28 02:50:31;;;;;;;;;;;;;;;21.78;35.67;96517.89;67895;1276;1016189;-61
2024/03/28 02:53:36;;;;;;;;;;;;;;;21.76;35.68;96523.52;67973;1276;1016684;-66
2024/03/28 02:56:40;;;;;;;;;;;;;;;21.70;35.79;96526.75;68021;1276;1016107;-66
2024/03/28 02:59:43;;;;;;;;;;;;;;;21.66;35.87;96518.17;67981;1276;1016536;-65
2024/03/28 03:02:47;;;;;;;;;;;;;;;21.64;35.87;96509.21;67937;1276;1015994;-66
2024/03/28 03:05:50;;;;;;;;;;;;;;;21.69;35.79;96501.04;68005;1274;1016394;-66
2024/03/28 03:08:55;;;;;;;;;;;;;;;21.78;35.66;96491.16;67974;1275;1016789;-60
2024/03/28 03:12:01;;;;;;;;;;;;;;;21.77;35.61;96496.77;68027;1276;1016028;-61
2024/03/28 03:15:05;;;;;;;;;;;;;;;21.90;35.51;96500.08;67894;1276;1016478;-66
2024/03/28 03:18:10;;;;;;;;;;;;;;;21.87;35.59;96492.22;67816;1276;1016289;-66
2024/03/28 03:21:15;;;;;;;;;;;;;;;21.88;35.67;96488.14;67937;1276;1016584;-65
2024/03/28 03:24:20;;;;;;;;;;;;;;;21.86;35.63;96486.48;67959;1276;1016195;-66
2024/03/28 03:27:32;;;;;;;;;;;;;;;21.90;35.54;96488.25;68000;1276;1016548;-66
2024/03/28 03:37:30;;;;;;;;;;;;;;;21.92;35.56;96477.02;67980;1276;1016485;-67
2024/03/28 03:40:35;;;;;;;;;;;;;;;22.00;35.43;96480.54;67924;1276;1016048;-62
2024/03/28 03:43:39;;;;;;;;;;;;;;;22.00;35.42;96480.25;67893;1276;1016337;-62
2024/03/28 03:46:43;;;;;;;;;;;;;;;21.83;35.70;96468.29;68014;1276;1016686;-62
2024/03/28 03:49:47;;;;;;;;;;;;;;;21.94;35.55;96467.58;68001;1276;1016349;-65
2024/03/28 03:52:52;;;;;;;;;;;;;;;22.04;35.53;96474.17;67963;1276;1016162;-64
2024/03/28 03:55:58;;;;;;;;;;;;;;;21.96;35.59;96472.13;68009;1276;1016285;-63
2024/03/28 03:59:03;;;;;;;;;;;;;;;21.82;35.78;96462.35;67977;1276;1015959;-65
2024/03/28 04:02:07;;;;;;;;;;;;;;;21.89;35.66;96457.27;68027;1276;1016450;-67
2024/03/28 04:05:12;;;;;;;;;;;;;;;21.86;35.72;96451.18;68001;1276;1019717;-67
2024/03/28 04:08:17;;;;;;;;;;;;;;;21.99;35.61;96446.39;67955;1276;1015941;-67
2024/03/28 04:11:22;;;;;;;;;;;;;;;21.96;35.58;96438.66;67966;1276;1016280;-67
2024/03/28 04:14:26;;;;;;;;;;;;;;;21.92;35.64;96445.40;68014;1276;1016455;-66
2024/03/28 04:17:32;;;;;;;;;;;;;;;21.85;35.75;96450.09;67943;1276;1017490;-66
2024/03/28 04:20:35;;;;;;;;;;;;;;;21.83;35.80;96453.77;67926;1276;1016270;-62
2024/03/28 04:23:40;;;;;;;;;;;;;;;21.77;35.89;96464.33;68007;1276;1019482;-67
2024/03/28 04:26:45;;;;;;;;;;;;;;;21.72;36.00;96457.73;68014;1276;1016455;-66
2024/03/28 04:29:49;;;;;;;;;;;;;;;21.66;36.06;96447.96;67989;1276;1017884;-67
2024/03/28 04:32:51;;;;;;;;;;;;;;;21.72;35.95;96431.84;67985;1276;1016459;-67
2024/03/28 04:35:55;;;;;;;;;;;;;;;21.66;36.13;96425.64;67959;1276;1016430;-66
2024/03/28 04:39:00;;;;;;;;;;;;;;;21.52;36.36;96416.91;67975;1276;1016407;-67
2024/03/28 04:42:05;;;;;;;;;;;;;;;21.35;36.60;96410.31;67997;1276;1016466;-67
2024/03/28 04:45:10;;;;;;;;;;;;;;;21.28;36.86;96401.41;67994;1276;1016069;-67
2024/03/28 04:48:15;;;;;;;;;;;;;;;21.53;36.44;96396.85;67906;1276;1016088;-61
2024/03/28 04:51:19;;;;;;;;;;;;;;;21.41;36.70;96392.54;67942;1276;1016155;-67
2024/03/28 04:54:22;;;;;;;;;;;;;;;21.23;37.10;96388.70;67941;1276;1015858;-65
2024/03/28 04:57:25;;;;;;;;;;;;;;;21.27;37.07;96397.89;67901;1276;1015900;-62
2024/03/28 05:04:02;;;;;;;;;;;;;;;21.33;37.08;96387.20;67922;1272;1016753;-63
2024/03/28 05:07:07;;;;;;;;;;;;;;;21.59;36.79;96391.36;67890;1276;1016840;-62
2024/03/28 05:10:13;;;;;;;;;;;;;;;21.63;36.75;96392.16;67890;1276;1016489;-63
2024/03/28 05:13:17;;;;;;;;;;;;;;;21.26;37.50;96390.89;68001;1276;1016479;-67
2024/03/28 05:16:23;;;;;;;;;;;;;;;21.74;36.76;96385.73;67934;1276;1016343;-65
2024/03/28 05:19:27;;;;;;;;;;;;;;;21.96;36.49;96383.20;67987;1276;1016301;-65
2024/03/28 05:22:32;;;;;;;;;;;;;;;21.94;36.62;96384.60;67896;1276;1016452;-65
2024/03/28 05:25:36;;;;;;;;;;;;;;;22.05;36.64;96390.84;67954;1276;1017267;-67
2024/03/28 05:28:41;;;;;;;;;;;;;;;22.20;36.43;96389.03;67983;1276;1016376;-67
2024/03/28 05:31:45;;;;;;;;;;;;;;;22.15;36.61;96383.41;67981;1276;1016385;-67
2024/03/28 05:34:49;;;;;;;;;;;;;;;22.05;36.92;96383.63;67979;1276;1016447;-68
2024/03/28 05:37:52;;;;;;;;;;;;;;;22.11;36.90;96393.39;67976;1276;1016453;-64
2024/03/28 05:40:56;;;;;;;;;;;;;;;22.12;36.88;96392.56;67944;1276;1016428;-63
2024/03/28 05:44:01;;;;;;;;;;;;;;;22.38;36.54;96389.35;67969;1276;1018104;-67
2024/03/28 05:47:06;;;;;;;;;;;;;;;22.32;36.73;96384.80;67983;1276;1016314;-66
2024/03/28 05:50:11;;;;;;;;;;;;;;;22.36;36.71;96382.42;67956;1276;1016420;-67
2024/03/28 05:53:15;;;;;;;;;;;;;;;22.47;36.67;96374.67;67988;1276;1016155;-66
2024/03/28 05:56:19;;;;;;;;;;;;;;;22.47;36.66;96376.87;67964;1276;1016407;-67
2024/03/28 05:59:23;;;;;;;;;;;;;;;22.57;36.52;96380.31;67975;1276;1016785;-67
2024/03/28 06:02:27;;;;;;;;;;;;;;;22.71;36.55;96383.00;65271;1276;6495128;-67
2024/03/28 06:05:34;;;;;;;;;;;;;;;22.81;36.38;96388.35;67868;1276;1016291;-63
2024/03/28 06:08:40;;;;;;;;;;;;;;;22.98;36.18;96393.44;67926;1276;1016486;-67
2024/03/28 06:11:44;;;;;;;;;;;;;;;23.13;36.00;96396.13;67946;1276;1016665;-67
2024/03/28 06:14:49;;;;;;;;;;;;;;;22.97;36.20;96399.17;67931;1276;1015704;-67
2024/03/28 06:17:53;;;;;;;;;;;;;;;22.59;36.86;96405.68;67931;1276;1016295;-62
2024/03/28 06:20:56;;;;;;;;;;;;;;;22.88;36.63;96415.73;67924;1276;1016372;-66
2024/03/28 06:24:00;;;;;;;;;;;;;;;23.07;36.39;96413.00;67891;1276;1017256;-66
2024/03/28 06:27:06;;;;;;;;;;;;;;;23.12;36.40;96415.35;67968;1276;1017259;-67
2024/03/28 06:30:11;;;;;;;;;;;;;;;23.15;36.50;96420.92;67890;1276;1016398;-67
2024/03/28 06:33:15;;;;;;;;;;;;;;;22.75;37.21;96421.04;67926;1276;1016341;-63
2024/03/28 06:36:19;;;;;;;;;;;;;;;22.65;37.36;96415.52;67996;1276;1016592;-67
2024/03/28 06:39:24;;;;;;;;;;;;;;;22.67;37.32;96414.95;67973;1276;1016421;-63
2024/03/28 06:42:28;;;;;;;;;;;;;;;22.78;37.12;96413.89;67998;1276;1016436;-67
2024/03/28 06:45:32;;;;;;;;;;;;;;;23.18;36.54;96415.83;67936;1276;1016395;-67
2024/03/28 06:48:37;;;;;;;;;;;;;;;23.33;36.42;96416.06;67934;1276;1016209;-64
2024/03/28 06:51:43;;;;;;;;;;;;;;;23.35;36.21;96411.86;67929;1276;1016049;-62
2024/03/28 06:54:48;;;;;;;;;;;;;;;23.29;36.50;96410.82;67988;1276;1016546;-67
2024/03/28 06:57:52;;;;;;;;;;;;;;;22.90;37.10;96416.98;67954;1276;1016422;-65
2024/03/28 07:00:57;;;;;;;;;;;;;;;22.82;37.39;96430.72;67938;1276;1016471;-66
2024/03/28 07:04:01;;;;;;;;;;;;;;;22.83;37.64;96432.88;67974;1276;1016247;-65
2024/03/28 07:07:06;;;;;;;;;;;;;;;23.11;37.55;96430.50;67972;1276;1016515;-63
2024/03/28 07:10:10;;;;;;;;;;;;;;;22.95;38.08;96433.06;67908;1276;1016260;-62
2024/03/28 07:13:14;;;;;;;;;;;;;;;22.79;38.36;96431.52;67962;1276;1016408;-64
2024/03/28 07:16:19;;;;;;;;;;;;;;;22.95;38.29;96430.45;67968;1276;1016276;-67
2024/03/28 07:19:25;;;;;;;;;;;;;;;23.08;38.21;96432.36;67935;1276;1016531;-66
2024/03/28 07:22:29;;;;;;;;;;;;;;;23.20;37.99;96429.49;67870;1276;1016340;-67
2024/03/28 07:25:33;;;;;;;;;;;;;;;23.01;38.39;96433.86;67929;1276;1016356;-65
2024/03/28 07:28:38;;;;;;;;;;;;;;;23.16;38.20;96439.02;67849;1276;1016354;-67
2024/03/28 07:31:42;;;;;;;;;;;;;;;23.18;38.15;96444.42;67985;1276;1016260;-63
2024/03/28 07:34:46;;;;;;;;;;;;;;;23.33;37.90;96445.52;67972;1276;1016741;-67
2024/03/28 07:37:52;;;;;;;;;;;;;;;23.49;37.81;96437.25;67971;1276;1015870;-67
2024/03/28 07:40:56;;;;;;;;;;;;;;;23.66;37.58;96432.20;67984;1276;1016133;-62
2024/03/28 07:44:00;;;;;;;;;;;;;;;23.80;37.36;96434.77;67984;1276;1016478;-67
2024/03/28 07:47:05;;;;;;;;;;;;;;;24.09;37.13;96440.17;67902;1276;1016383;-63
2024/03/28 07:50:09;;;;;;;;;;;;;;;24.20;37.16;96436.85;67971;1276;1016418;-67
2024/03/28 07:53:14;;;;;;;;;;;;;;;24.46;36.94;96432.35;67959;1276;1016443;-66
2024/03/28 07:56:19;;;;;;;;;;;;;;;24.69;36.56;96432.66;67962;1276;1016449;-67
2024/03/28 07:59:23;;;;;;;;;;;;;;;24.77;36.61;96433.11;67904;1276;1016140;-65
2024/03/28 08:02:27;;;;;;;;;;;;;;;25.09;36.27;96434.43;67924;1276;1016179;-67
2024/03/28 08:05:32;;;;;;;;;;;;;;;25.12;36.24;96429.37;67969;1276;1016408;-67
2024/03/28 08:08:37;;;;;;;;;;;;;;;25.25;36.15;96423.03;67967;1276;1016848;-66
2024/03/28 08:11:43;;;;;;;;;;;;;;;25.23;36.13;96421.81;67951;1276;1017228;-67
2024/03/28 08:14:46;;;;;;;;;;;;;;;25.21;35.96;96427.80;67925;1276;1016384;-63
2024/03/28 08:17:51;;;;;;;;;;;;;;;25.05;36.16;96431.30;67938;1276;1016473;-67
2024/03/28 08:20:57;;;;;;;;;;;;;;;25.39;35.60;96431.40;67894;1276;1016461;-65
2024/03/28 08:24:04;;;;;;;;;;;;;;;25.66;35.34;96429.02;67924;1276;1016447;-66
2024/03/28 08:27:09;;;;;;;;;;;;;;;25.78;35.19;96427.15;67984;1276;1016260;-66
2024/03/28 08:30:13;;;;;;;;;;;;;;;25.92;35.06;96420.55;67955;1276;1016500;-65
2024/03/28 08:33:17;;;;;;;;;;;;;;;25.97;35.23;96425.84;67894;1276;1016396;-67
2024/03/28 08:36:20;;;;;;;;;;;;;;;26.13;35.09;96431.50;67923;1276;1017214;-67
2024/03/28 08:39:24;;;;;;;;;;;;;;;26.26;35.12;96432.52;67952;1276;1016259;-63
2024/03/28 08:42:29;;;;;;;;;;;;;;;26.26;35.15;96430.68;67976;1276;1016313;-67
2024/03/28 08:45:33;;;;;;;;;;;;;;;26.33;35.29;96430.86;67940;1276;1016065;-67
2024/03/28 08:48:43;;;;;;;;;;;;;;;26.55;34.90;96419.85;67954;1276;1016441;-67
2024/03/28 08:51:47;;;;;;;;;;;;;;;26.73;34.68;96418.31;67951;1276;1016398;-66
2024/03/28 08:54:52;;;;;;;;;;;;;;;26.81;34.59;96419.52;67870;1276;1016459;-67
2024/03/28 08:57:54;;;;;;;;;;;;;;;26.67;34.87;96425.64;67953;1276;1016428;-63
2024/03/28 09:01:00;;;;;;;;;;;;;;;27.08;34.58;96417.79;67917;1276;1016563;-66
2024/03/28 09:04:07;;;;;;;;;;;;;;;27.30;34.08;96424.60;67940;1276;1016436;-66
2024/03/28 09:07:12;;;;;;;;;;;;;;;27.37;33.81;96430.27;67858;1276;1016586;-67
2024/03/28 09:10:16;;;;;;;;;;;;;;;27.18;34.05;96431.24;67934;1276;1016470;-64
2024/03/28 09:13:21;;;;;;;;;;;;;;;27.16;33.75;96424.84;67960;1276;1016367;-67
2024/03/28 09:16:27;;;;;;;;;;;;;;;26.98;34.05;96433.09;67922;1276;1017825;-67
2024/03/28 09:19:31;;;;;;;;;;;;;;;27.02;33.99;96431.52;67964;1276;1017576;-67
2024/03/28 09:22:37;;;;;;;;;;;;;;;26.94;34.19;96432.27;67955;1276;1016488;-66
2024/03/28 09:25:41;;;;;;;;;;;;;;;27.21;34.01;96443.54;67934;1276;1016436;-66
2024/03/28 09:28:45;;;;;;;;;;;;;;;27.21;34.12;96445.85;67907;1276;1016040;-66
2024/03/28 09:31:50;;;;;;;;;;;;;;;27.30;34.06;96446.34;67904;1276;1016359;-66
2024/03/28 09:34:55;;;;;;;;;;;;;;;27.66;33.86;96446.69;67980;1276;1016507;-66
2024/03/28 09:38:00;;;;;;;;;;;;;;;28.15;33.56;96445.31;67924;1276;1018677;-66
2024/03/28 09:41:05;;;;;;;;;;;;;;;28.13;33.40;96450.54;67968;1276;1016352;-63
2024/03/28 09:44:10;;;;;;;;;;;;;;;28.30;33.45;96459.48;67967;1276;1016214;-67
2024/03/28 09:47:15;;;;;;;;;;;;;;;28.62;33.11;96467.98;67933;1276;1016382;-64
2024/03/28 09:50:23;;;;;;;;;;;;;;;28.87;32.79;96478.23;67941;1276;1016428;-67
2024/03/28 09:53:27;;;;;;;;;;;;;;;28.86;32.73;96482.10;67965;1276;1018256;-65
2024/03/28 09:56:31;;;;;;;;;;;;;;;28.88;32.38;96479.56;67879;1276;1016017;-66
2024/03/28 09:59:35;;;;;;;;;;;;;;;28.61;32.42;96482.10;67935;1276;1016162;-63
2024/03/28 10:02:39;;;;;;;;;;;;;;;28.20;32.71;96482.83;67895;1276;1016407;-66
2024/03/28 10:05:42;;;;;;;;;;;;;;;28.25;32.95;96485.92;67941;1276;1016103;-66
2024/03/28 10:08:47;;;;;;;;;;;;;;;28.54;32.78;96486.13;67959;1276;1016484;-66
2024/03/28 10:11:53;;;;;;;;;;;;;;;28.29;32.20;96487.83;67936;1276;1018446;-66
2024/03/28 10:14:57;;;;;;;;;;;;;;;27.87;32.86;96496.23;67929;1276;1016502;-66
2024/03/28 10:18:02;;;;;;;;;;;;;;;27.66;32.84;96501.08;67933;1276;1016433;-66
2024/03/28 10:21:11;;;;;;;;;;;;;;;27.76;32.31;96501.95;67949;1276;1016818;-65
2024/03/28 10:24:16;;;;;;;;;;;;;;;27.46;32.57;96500.84;67962;1276;1016446;-65
2024/03/28 10:27:20;;;;;;;;;;;;;;;27.33;32.66;96497.08;67921;1276;1016284;-66
2024/03/28 10:30:23;;;;;;;;;;;;;;;27.12;32.63;96496.73;67914;1276;1016205;-63
2024/03/28 10:33:29;;;;;;;;;;;;;;;27.01;32.74;96500.77;67941;1276;1016495;-65
2024/03/28 10:36:35;;;;;;;;;;;;;;;26.61;32.87;96508.44;67900;1276;1016436;-63
2024/03/28 10:39:40;;;;;;;;;;;;;;;26.50;33.10;96511.92;67923;1276;1016378;-66
2024/03/28 10:42:44;;;;;;;;;;;;;;;26.37;33.23;96516.61;67916;1276;1016205;-66
2024/03/28 10:45:49;;;;;;;;;;;;;;;26.26;33.63;96517.67;67921;1276;1017624;-66
2024/03/28 10:48:53;;;;;;;;;;;;;;;26.52;33.28;96530.27;67926;1276;1017125;-67
2024/03/28 10:51:55;;;;;;;;;;;;;;;26.34;33.79;96523.84;67947;1276;1017201;-64
2024/03/28 10:55:00;;;;;;;;;;;;;;;26.76;33.43;96515.81;68070;1275;1016328;-66
2024/03/28 10:58:07;;;;;;;;;;;;;;;27.32;32.82;96516.91;67946;1275;1015907;-65
2024/03/28 11:01:12;;;;;;;;;;;;;;;27.80;32.59;96517.43;67994;1275;1016488;-67
2024/03/28 11:04:17;;;;;;;;;;;;;;;28.34;32.29;96507.58;68021;1275;1017405;-66
2024/03/28 11:07:21;;;;;;;;;;;;;;;28.73;31.63;96517.52;67971;1275;1016294;-65
2024/03/28 11:10:24;;;;;;;;;;;;;;;28.78;31.60;96519.62;68008;1275;1016491;-64
2024/03/28 11:13:27;;;;;;;;;;;;;;;28.59;30.47;96512.41;68016;1275;1016546;-66
2024/03/28 11:16:32;;;;;;;;;;;;;;;28.71;30.01;96508.60;68067;1275;1016557;-67
2024/03/28 11:19:38;;;;;;;;;;;;;;;28.79;29.04;96510.46;68069;1275;1016455;-66
2024/03/28 11:22:42;;;;;;;;;;;;;;;29.22;27.62;96509.88;68028;1275;1018082;-67
2024/03/28 11:25:47;;;;;;;;;;;;;;;29.40;27.16;96504.79;68052;1275;1015763;-66
2024/03/28 11:28:51;;;;;;;;;;;;;;;30.13;26.25;96494.39;68056;1275;1017064;-67
2024/03/28 11:31:56;;;;;;;;;;;;;;;29.91;25.97;96500.03;68078;1275;1016542;-64
2024/03/28 11:35:00;;;;;;;;;;;;;;;29.39;26.83;96506.30;68041;1275;1015877;-66
2024/03/28 11:38:04;;;;;;;;;;;;;;;28.58;26.95;96504.89;68070;1275;1015612;-67
2024/03/28 11:41:08;;;;;;;;;;;;;;;27.86;27.96;96520.27;68064;1275;1016491;-66
2024/03/28 11:44:13;;;;;;;;;;;;;;;27.90;27.70;96520.29;68030;1275;1016468;-63
2024/03/28 11:47:16;;;;;;;;;;;;;;;28.03;27.66;96536.09;68066;1275;1016598;-66
2024/03/28 11:50:21;;;;;;;;;;;;;;;28.25;26.97;96542.24;68065;1275;1018340;-67
2024/03/28 11:53:25;;;;;;;;;;;;;;;28.09;27.17;96541.36;68005;1275;1016951;-65
2024/03/28 11:56:30;;;;;;;;;;;;;;;28.04;27.35;96541.00;68075;1275;1019615;-66
2024/03/28 11:59:34;;;;;;;;;;;;;;;27.59;27.34;96570.06;68082;1275;1015983;-67
2024/03/28 12:02:39;;;;;;;;;;;;;;;27.24;27.78;96581.32;68035;1275;1016249;-66
2024/03/28 12:05:44;;;;;;;;;;;;;;;26.71;28.15;96583.77;68054;1275;1016455;-66
2024/03/28 12:08:50;;;;;;;;;;;;;;;26.26;28.85;96587.95;68034;1275;1017463;-67
2024/03/28 12:12:00;;;;;;;;;;;;;;;25.64;29.06;96575.16;67999;1275;1016830;-66
2024/03/28 12:15:04;;;;;;;;;;;;;;;25.59;28.95;96586.27;67991;1275;1016406;-67
2024/03/28 12:18:08;;;;;;;;;;;;;;;25.54;29.39;96596.66;68052;1275;1016282;-67
2024/03/28 12:21:13;;;;;;;;;;;;;;;25.35;29.40;96596.77;68021;1275;1016143;-67
2024/03/28 12:24:18;;;;;;;;;;;;;;;25.40;29.76;96616.92;68027;1275;1016394;-65
2024/03/28 12:27:22;;;;;;;;;;;;;;;25.45;29.57;96622.47;68051;1275;1016957;-66
2024/03/28 12:30:27;;;;;;;;;;;;;;;25.56;29.60;96617.52;68095;1275;1016149;-67
2024/03/28 12:33:32;;;;;;;;;;;;;;;25.54;29.55;96622.59;68057;1275;1016473;-64
2024/03/28 12:36:36;;;;;;;;;;;;;;;25.57;29.43;96613.81;68006;1275;1016324;-65
2024/03/28 12:39:40;;;;;;;;;;;;;;;25.58;29.54;96632.90;68048;1275;1015841;-64
2024/03/28 12:42:44;;;;;;;;;;;;;;;25.14;29.54;96634.36;68071;1275;1016549;-66
2024/03/28 12:45:47;;;;;;;;;;;;;;;24.83;29.97;96643.00;68049;1275;1018092;-63
2024/03/28 12:48:52;;;;;;;;;;;;;;;24.47;30.28;96640.27;68024;1275;1016455;-66
2024/03/28 12:51:56;;;;;;;;;;;;;;;24.10;30.90;96654.66;67997;1275;1016269;-63
2024/03/28 12:55:01;;;;;;;;;;;;;;;23.80;31.40;96654.84;68065;1275;1015914;-67
2024/03/28 12:58:07;;;;;;;;;;;;;;;23.80;31.35;96655.29;68067;1275;1016564;-66
2024/03/28 13:01:11;;;;;;;;;;;;;;;23.96;31.33;96648.88;68060;1275;1017876;-67
2024/03/28 13:04:15;;;;;;;;;;;;;;;24.09;31.02;96661.17;68037;1275;1016282;-65
2024/03/28 13:07:18;;;;;;;;;;;;;;;24.18;30.79;96661.36;68029;1275;1016468;-67
2024/03/28 13:10:23;;;;;;;;;;;;;;;24.45;30.84;96658.22;68001;1275;1016953;-64
2024/03/28 13:13:27;;;;;;;;;;;;;;;24.71;30.48;96659.81;68039;1275;1016135;-63
2024/03/28 13:16:30;;;;;;;;;;;;;;;24.49;30.38;96655.29;68032;1275;1016471;-65
2024/03/28 13:19:35;;;;;;;;;;;;;;;24.30;30.65;96665.88;68017;1275;1016501;-64
2024/03/28 13:22:39;;;;;;;;;;;;;;;24.26;30.56;96660.05;68077;1275;1016443;-67
2024/03/28 13:25:43;;;;;;;;;;;;;;;24.11;30.95;96668.40;68056;1275;1016165;-65
2024/03/28 13:28:45;;;;;;;;;;;;;;;24.15;31.05;96675.29;68041;1275;1016405;-62
2024/03/28 13:31:52;;;;;;;;;;;;;;;24.54;30.99;96684.45;68027;1275;1016577;-62
2024/03/28 13:34:58;;;;;;;;;;;;;;;24.71;30.89;96685.16;68052;1275;1017016;-63
2024/03/28 13:38:04;;;;;;;;;;;;;;;24.95;30.84;96687.58;68084;1275;1016362;-66
2024/03/28 13:41:09;;;;;;;;;;;;;;;24.73;30.39;96683.32;68034;1275;1016480;-66
2024/03/28 13:44:13;;;;;;;;;;;;;;;24.52;29.97;96688.05;68049;1275;1016426;-67
2024/03/28 13:47:18;;;;;;;;;;;;;;;24.75;30.67;96693.10;68036;1275;1016375;-62
2024/03/28 13:50:23;;;;;;;;;;;;;;;25.11;30.12;96705.54;68003;1275;1016444;-66
2024/03/28 13:53:27;;;;;;;;;;;;;;;25.18;29.78;96702.17;67998;1275;1016423;-64
2024/03/28 13:56:31;;;;;;;;;;;;;;;24.94;29.80;96709.23;68034;1275;1016430;-62
2024/03/28 13:59:35;;;;;;;;;;;;;;;24.88;30.01;96718.36;68032;1275;1016446;-64
2024/03/28 14:02:39;;;;;;;;;;;;;;;24.72;30.11;96718.66;68070;1275;1016342;-67
2024/03/28 14:05:44;;;;;;;;;;;;;;;25.18;30.10;96720.79;68041;1275;1016402;-67
2024/03/28 14:08:47;;;;;;;;;;;;;;;25.51;28.84;96720.04;68060;1275;1016233;-64
2024/03/28 14:11:52;;;;;;;;;;;;;;;25.45;28.60;96716.51;68060;1275;1016256;-67
2024/03/28 14:14:56;;;;;;;;;;;;;;;25.86;28.56;96709.21;68064;1275;1016428;-65
2024/03/28 14:17:59;;;;;;;;;;;;;;;25.65;27.88;96712.89;68064;1275;1016455;-62
2024/03/28 14:21:04;;;;;;;;;;;;;;;25.54;28.28;96716.61;68023;1275;1016458;-66
2024/03/28 14:24:08;;;;;;;;;;;;;;;25.74;28.10;96730.87;68041;1275;1016460;-66
2024/03/28 14:27:13;;;;;;;;;;;;;;;25.64;28.34;96728.70;68055;1275;1015950;-66
2024/03/28 14:30:17;;;;;;;;;;;;;;;26.26;28.00;96720.77;68014;1275;1017784;-65
2024/03/28 14:33:21;;;;;;;;;;;;;;;26.55;27.41;96727.55;68022;1275;1016452;-66
2024/03/28 14:36:25;;;;;;;;;;;;;;;26.56;27.21;96731.10;68005;1275;1016460;-67
2024/03/28 14:39:27;;;;;;;;;;;;;;;26.70;26.60;96735.60;68020;1275;1016447;-63
2024/03/28 14:42:32;;;;;;;;;;;;;;;26.47;26.93;96732.01;68057;1275;1016231;-67
2024/03/28 14:45:37;;;;;;;;;;;;;;;26.80;26.71;96737.91;68008;1275;1016961;-65
2024/03/28 14:48:42;;;;;;;;;;;;;;;26.84;26.71;96743.33;68024;1275;1016648;-66
2024/03/28 14:51:47;;;;;;;;;;;;;;;26.84;26.89;96736.93;67995;1275;1016421;-63
2024/03/28 14:54:51;;;;;;;;;;;;;;;26.77;26.71;96736.78;68051;1275;1016558;-66
2024/03/28 14:57:57;;;;;;;;;;;;;;;26.91;26.94;96745.38;68056;1275;1016438;-66
2024/03/28 15:01:00;;;;;;;;;;;;;;;26.90;26.88;96744.06;68066;1275;1018937;-66
2024/03/28 15:04:05;;;;;;;;;;;;;;;26.86;26.77;96752.26;68011;1275;1016751;-67
2024/03/28 15:07:09;;;;;;;;;;;;;;;26.80;26.88;96755.29;68007;1275;1016257;-66
2024/03/28 15:10:13;;;;;;;;;;;;;;;26.84;26.66;96754.10;67992;1275;1015854;-66
2024/03/28 15:13:18;;;;;;;;;;;;;;;26.78;26.62;96753.31;68027;1275;1016400;-62
2024/03/28 15:16:22;;;;;;;;;;;;;;;26.72;27.07;96757.48;68051;1275;1016438;-66
2024/03/28 15:19:28;;;;;;;;;;;;;;;26.91;26.90;96756.71;68072;1275;1016519;-66
2024/03/28 15:22:30;;;;;;;;;;;;;;;26.89;26.44;96757.45;68004;1275;1016209;-66
2024/03/28 15:25:35;;;;;;;;;;;;;;;26.78;26.26;96761.06;68030;1275;1016173;-66
2024/03/28 15:28:40;;;;;;;;;;;;;;;26.59;26.33;96767.92;68045;1275;1016325;-66
2024/03/28 15:31:47;;;;;;;;;;;;;;;27.06;25.95;96769.05;68018;1275;1016395;-66
2024/03/28 15:34:51;;;;;;;;;;;;;;;28.43;25.48;96778.31;68041;1275;1020032;-66
2024/03/28 15:37:56;;;;;;;;;;;;;;;29.29;24.27;96783.69;68025;1275;1018459;-67
2024/03/28 15:41:00;;;;;;;;;;;;;;;29.23;23.41;96787.70;67955;1275;1017076;-62
2024/03/28 15:44:05;;;;;;;;;;;;;;;29.97;23.07;96791.13;68008;1275;1016735;-66
2024/03/28 15:47:10;;;;;;;;;;;;;;;30.99;22.80;96794.02;68036;1275;1016404;-66